Time;durP1;ratioP1;P1;durP2;ratioP2;P2;SDS_P1;SDS_P2;PMS_P1;PMS_P2;Temp;Humidity;BMP_temperature;BMP_pressure;BME280_temperature;BME280_humidity;BME280_pressure;Samples;Min_cycle;Max_cycle;Signal;HPM_P1;HPM_P2
2022/07/15 00:02:26;;;;;;;21.85;8.57;;;;;;;25.50;49.98;100115.75;5006374;28;20077;-66
2022/07/15 00:04:53;;;;;;;13.43;8.25;;;;;;;25.55;49.88;100108.03;5011676;28;20061;-67
2022/07/15 00:07:20;;;;;;;14.77;8.07;;;;;;;25.38;49.76;100081.72;5012610;28;20133;-66
2022/07/15 00:12:33;;;;;;;15.88;7.32;;;;;;;25.31;50.23;100080.81;5011271;28;20060;-68
2022/07/15 00:15:00;;;;;;;16.65;9.48;;;;;;;25.34;50.54;100069.44;4998608;28;20125;-68
2022/07/15 00:17:27;;;;;;;13.27;9.55;;;;;;;25.32;50.26;100043.25;5009883;28;20041;-67
2022/07/15 00:19:53;;;;;;;12.63;8.82;;;;;;;25.50;49.91;100047.13;5001458;28;20141;-66
2022/07/15 00:22:21;;;;;;;17.85;8.23;;;;;;;25.46;49.97;100031.16;5012306;28;20513;-67
2022/07/15 00:24:47;;;;;;;17.77;8.57;;;;;;;25.60;50.23;100034.13;5010909;28;20469;-68
2022/07/15 00:27:14;;;;;;;15.43;6.88;;;;;;;25.45;49.83;100003.78;5000825;28;20544;-68
2022/07/15 00:29:41;;;;;;;16.50;9.15;;;;;;;25.38;50.35;99987.38;5014035;28;20050;-67
2022/07/15 00:32:08;;;;;;;19.75;9.75;;;;;;;25.48;49.80;100000.13;4999458;28;20085;-68
2022/07/15 00:34:36;;;;;;;14.18;8.50;;;;;;;25.73;49.41;100026.06;5007557;28;20493;-66
2022/07/15 00:37:03;;;;;;;17.70;8.93;;;;;;;25.64;49.69;100020.69;4997935;28;20097;-69
2022/07/15 00:39:30;;;;;;;12.48;8.10;;;;;;;25.57;49.93;100023.47;5004159;28;20560;-66
2022/07/15 00:41:57;;;;;;;12.18;8.82;;;;;;;25.25;50.39;99997.47;5011856;28;20054;-68
2022/07/15 00:44:25;;;;;;;10.32;6.63;;;;;;;25.03;50.02;99945.00;5005452;28;20073;-68
2022/07/15 00:46:53;;;;;;;11.70;8.30;;;;;;;25.34;50.36;99966.53;5004268;28;20081;-68
2022/07/15 00:49:20;;;;;;;11.90;8.40;;;;;;;25.45;50.36;99958.03;5012214;28;20611;-67
2022/07/15 00:51:51;;;;;;;18.75;10.57;;;;;;;25.73;49.71;99983.16;5006338;28;20049;-66
2022/07/15 00:54:23;;;;;;;15.30;9.48;;;;;;;25.77;48.93;99973.38;5010009;28;20129;-67
2022/07/15 00:56:56;;;;;;;17.20;10.70;;;;;;;25.73;48.84;99941.09;5006808;28;20130;-66
2022/07/15 00:59:28;;;;;;;13.88;9.05;;;;;;;25.83;48.28;99953.84;5000100;28;20129;-66
2022/07/15 01:01:56;;;;;;;15.15;9.25;;;;;;;25.97;48.03;99981.72;5006750;28;20054;-66
2022/07/15 01:04:23;;;;;;;19.55;9.73;;;;;;;25.97;47.93;100001.75;5005284;28;20548;-66
2022/07/15 01:06:53;;;;;;;14.23;9.35;;;;;;;25.88;47.76;99972.66;4997338;28;20116;-66
2022/07/15 01:09:24;;;;;;;18.02;9.52;;;;;;;25.91;47.91;99951.84;5000104;28;20053;-66
2022/07/15 01:11:51;;;;;;;16.25;9.65;;;;;;;25.98;47.40;99946.16;5010250;28;20072;-66
2022/07/15 01:14:18;;;;;;;16.48;9.75;;;;;;;25.98;47.50;99949.03;5003130;28;20140;-66
2022/07/15 01:16:45;;;;;;;17.30;10.77;;;;;;;25.91;47.59;99932.63;4997523;28;20094;-66
2022/07/15 01:19:12;;;;;;;14.40;8.70;;;;;;;25.83;47.94;99904.41;5006291;28;20054;-66
2022/07/15 01:21:39;;;;;;;15.38;8.65;;;;;;;26.06;47.57;99924.97;5007764;28;20133;-65
2022/07/15 01:24:06;;;;;;;15.68;8.32;;;;;;;26.01;47.22;99908.19;5001745;28;20141;-66
2022/07/15 01:26:32;;;;;;;14.70;8.30;;;;;;;25.99;46.79;99897.16;5008996;28;20444;-67
2022/07/15 01:28:59;;;;;;;15.85;8.65;;;;;;;26.24;47.05;99919.31;5004832;28;20073;-66
2022/07/15 01:31:26;;;;;;;14.20;8.80;;;;;;;26.11;46.59;99889.41;5005714;28;20510;-67
2022/07/15 01:33:54;;;;;;;13.48;8.20;;;;;;;26.08;47.14;99891.03;5006893;28;20300;-66
2022/07/15 01:36:21;;;;;;;14.65;9.00;;;;;;;26.04;47.06;99855.88;5008705;28;20046;-68
2022/07/15 01:38:48;;;;;;;17.38;8.48;;;;;;;25.99;47.56;99847.69;5005870;28;20080;-67
2022/07/15 01:41:31;;;;;;;16.23;7.93;;;;;;;26.17;46.66;99860.00;5010716;28;20050;-68
2022/07/15 01:43:59;;;;;;;19.17;8.73;;;;;;;26.17;46.53;99860.00;5003080;28;20472;-68
2022/07/15 01:46:25;;;;;;;15.13;8.65;;;;;;;26.09;46.42;99841.19;4996403;28;20138;-68
2022/07/15 01:51:41;;;;;;;14.45;10.38;;;;;;;26.39;45.96;99925.91;5008569;28;20133;-68
2022/07/15 01:54:08;;;;;;;18.85;10.10;;;;;;;26.56;46.07;99939.50;4999790;28;20132;-68
2022/07/15 01:56:36;;;;;;;13.82;9.43;;;;;;;26.46;46.20;99935.38;5010188;28;20077;-68
2022/07/15 01:59:03;;;;;;;14.93;10.75;;;;;;;26.56;46.47;99928.03;5009161;28;20065;-68
2022/07/15 02:01:30;;;;;;;13.82;8.43;;;;;;;26.55;45.94;99922.72;5003415;28;20760;-68
2022/07/15 02:03:57;;;;;;;18.25;10.52;;;;;;;26.50;46.30;99921.09;5006298;28;20050;-68
2022/07/15 02:06:24;;;;;;;20.17;11.50;;;;;;;26.47;46.28;99916.19;5011812;28;20348;-68
2022/07/15 02:08:51;;;;;;;17.80;10.43;;;;;;;26.36;45.97;99898.09;5010129;28;20144;-68
2022/07/15 02:11:17;;;;;;;14.88;10.30;;;;;;;26.39;45.98;99928.78;5010791;28;20081;-69
2022/07/15 02:13:44;;;;;;;16.38;9.32;;;;;;;26.27;45.65;99886.22;5011881;28;20137;-68
2022/07/15 02:16:11;;;;;;;17.70;10.32;;;;;;;26.29;45.88;99890.31;5007169;28;20054;-67
2022/07/15 02:18:38;;;;;;;15.23;8.68;;;;;;;26.15;45.99;99902.53;5009315;28;20092;-67
2022/07/15 02:21:05;;;;;;;16.65;9.15;;;;;;;26.29;46.29;99930.41;5005684;28;20046;-68
2022/07/15 02:23:32;;;;;;;15.48;8.73;;;;;;;26.38;46.02;99924.28;5009321;28;20085;-67
2022/07/15 02:25:59;;;;;;;13.90;8.55;;;;;;;26.29;45.79;99923.84;4999287;28;20069;-68
2022/07/15 02:28:26;;;;;;;16.15;10.02;;;;;;;26.21;46.12;99928.72;5007599;28;20038;-68
2022/07/15 02:30:52;;;;;;;13.90;8.52;;;;;;;26.11;46.34;99940.94;5004911;28;20505;-68
2022/07/15 02:33:19;;;;;;;20.95;8.85;;;;;;;26.04;46.36;99944.56;5012958;28;20061;-67
2022/07/15 02:35:46;;;;;;;17.23;8.63;;;;;;;25.88;46.37;99909.75;5011746;28;20469;-67
2022/07/15 02:38:13;;;;;;;14.60;8.95;;;;;;;25.96;46.49;99908.56;5005564;28;20134;-67
2022/07/15 02:40:41;;;;;;;15.07;9.32;;;;;;;26.08;46.39;99924.56;5015479;28;20081;-67
2022/07/15 02:43:10;;;;;;;17.02;9.50;;;;;;;25.91;46.20;99909.75;5008119;28;20479;-66
2022/07/15 02:45:38;;;;;;;15.55;9.45;;;;;;;26.04;46.22;99953.16;5012121;28;20050;-67
2022/07/15 02:48:06;;;;;;;20.30;9.13;;;;;;;25.91;46.64;99903.22;5003940;28;20081;-67
2022/07/15 02:50:33;;;;;;;13.23;8.40;;;;;;;25.94;46.38;99899.56;4998985;28;20088;-67
2022/07/15 02:53:02;;;;;;;16.40;8.27;;;;;;;25.91;46.63;99924.06;4998083;28;20133;-67
2022/07/15 02:55:29;;;;;;;24.83;10.13;;;;;;;25.89;46.56;99923.66;5008868;28;20081;-67
2022/07/15 02:57:56;;;;;;;18.73;8.77;;;;;;;25.86;46.51;99901.56;5005485;28;20088;-66
2022/07/15 03:00:23;;;;;;;17.55;9.45;;;;;;;25.82;46.39;99894.19;5001963;28;22912;-67
2022/07/15 03:02:50;;;;;;;17.45;9.00;;;;;;;25.96;46.83;99917.97;5006624;28;20137;-66
2022/07/15 03:05:18;;;;;;;21.23;9.70;;;;;;;26.02;46.77;99931.88;5002184;28;20104;-68
2022/07/15 03:07:46;;;;;;;16.83;8.75;;;;;;;25.96;46.79;99945.75;5008494;28;20057;-68
2022/07/15 03:10:13;;;;;;;22.80;8.38;;;;;;;25.77;46.49;99927.63;5004073;28;20096;-68
2022/07/15 03:12:41;;;;;;;17.65;8.02;;;;;;;25.80;46.72;99925.22;5007002;28;20054;-68
2022/07/15 03:15:08;;;;;;;19.27;10.07;;;;;;;25.85;47.18;99930.59;5007273;28;20073;-67
2022/07/15 03:17:35;;;;;;;22.23;10.10;;;;;;;25.66;46.90;99908.78;5005158;28;20133;-68
2022/07/15 03:20:02;;;;;;;14.73;8.95;;;;;;;25.88;46.90;99909.75;5014585;28;20085;-68
2022/07/15 03:22:29;;;;;;;19.95;8.57;;;;;;;25.72;47.04;99899.41;5010181;28;20159;-68
2022/07/15 03:24:56;;;;;;;20.05;9.75;;;;;;;25.86;47.04;99906.47;5006716;28;20086;-67
2022/07/15 03:27:23;;;;;;;18.80;9.15;;;;;;;25.50;46.84;99860.47;5011945;28;20078;-67
2022/07/15 03:29:50;;;;;;;18.40;10.43;;;;;;;25.65;47.09;99885.09;5008966;28;20138;-68
2022/07/15 03:32:19;;;;;;;17.02;8.60;;;;;;;25.45;47.19;99852.28;5010725;28;20140;-68
2022/07/15 03:34:48;;;;;;;16.30;9.32;;;;;;;25.46;47.26;99853.91;5012851;28;20503;-68
2022/07/15 03:37:15;;;;;;;16.15;8.48;;;;;;;25.55;46.97;99882.97;5006961;28;20528;-67
2022/07/15 03:39:42;;;;;;;19.63;10.23;;;;;;;25.63;47.14;99887.50;5002799;28;20140;-68
2022/07/15 03:42:09;;;;;;;16.17;8.80;;;;;;;25.61;47.38;99892.81;5010495;28;20045;-68
2022/07/15 03:44:36;;;;;;;21.42;9.55;;;;;;;25.63;47.18;99887.50;5014608;28;20127;-69
2022/07/15 03:47:03;;;;;;;18.38;10.07;;;;;;;25.62;47.69;99891.59;5009121;28;20093;-69
2022/07/15 03:49:30;;;;;;;14.85;8.98;;;;;;;25.50;47.80;99884.19;5003855;28;20134;-69
2022/07/15 03:51:57;;;;;;;20.50;9.27;;;;;;;25.49;47.68;99896.81;5009410;28;20088;-67
2022/07/15 03:54:24;;;;;;;17.83;8.65;;;;;;;25.48;48.17;99891.50;4996912;28;20132;-69
2022/07/15 03:56:51;;;;;;;22.42;10.48;;;;;;;25.38;48.18;99904.50;5012183;28;20057;-69
2022/07/15 03:59:22;;;;;;;22.38;9.57;;;;;;;25.45;48.35;99915.16;5007223;28;20093;-68
2022/07/15 04:01:49;;;;;;;17.60;9.13;;;;;;;25.32;48.37;99906.09;5008352;28;20088;-68
2022/07/15 04:04:16;;;;;;;14.23;8.05;;;;;;;25.43;48.48;99923.31;5010912;28;20102;-68
2022/07/15 04:06:43;;;;;;;18.60;8.52;;;;;;;25.23;48.51;99900.72;5010615;28;20128;-67
2022/07/15 04:09:10;;;;;;;18.10;9.05;;;;;;;25.31;48.57;99927.31;5006840;28;20485;-68
2022/07/15 04:11:41;;;;;;;18.52;8.57;;;;;;;25.28;48.90;99914.63;5014706;28;20446;-68
2022/07/15 04:14:13;;;;;;;21.58;9.40;;;;;;;25.24;48.93;99910.94;4999059;28;20082;-68
2022/07/15 04:16:43;;;;;;;19.85;10.02;;;;;;;25.18;49.10;99906.78;5011313;28;20108;-68
2022/07/15 04:19:10;;;;;;;15.98;8.88;;;;;;;25.25;48.96;99931.75;5013346;28;20053;-68
2022/07/15 04:21:37;;;;;;;17.27;9.15;;;;;;;25.24;48.54;99925.22;5010421;28;20073;-68
2022/07/15 04:24:04;;;;;;;19.13;9.68;;;;;;;25.28;48.71;99928.09;5008148;28;20129;-69
2022/07/15 04:26:31;;;;;;;23.33;9.45;;;;;;;25.10;49.10;99887.94;5003268;28;20222;-69
2022/07/15 04:28:58;;;;;;;15.15;9.05;;;;;;;25.16;49.04;99903.53;5007331;28;20137;-69
2022/07/15 04:31:25;;;;;;;17.90;8.88;;;;;;;25.12;49.00;99891.22;5007605;28;20129;-69
2022/07/15 04:33:52;;;;;;;18.98;9.18;;;;;;;25.19;48.84;99907.59;5009921;28;20049;-69
2022/07/15 04:36:18;;;;;;;19.02;9.55;;;;;;;25.11;48.95;99895.31;5009445;28;20160;-69
2022/07/15 04:38:45;;;;;;;16.35;9.20;;;;;;;25.13;48.67;99910.03;5007519;28;20070;-69
2022/07/15 04:41:12;;;;;;;19.90;8.95;;;;;;;25.22;48.70;99932.53;5001797;28;20081;-70
2022/07/15 04:43:39;;;;;;;18.45;9.20;;;;;;;25.13;49.26;99915.75;5013259;28;20073;-71
2022/07/15 04:46:06;;;;;;;16.52;9.25;;;;;;;25.23;48.84;99929.28;5002093;28;20146;-67
2022/07/15 04:51:19;;;;;;;16.60;9.93;;;;;;;25.11;49.13;99906.72;5005594;28;20133;-73
2022/07/15 04:53:46;;;;;;;20.85;10.35;;;;;;;25.18;49.09;99918.22;5008859;28;20135;-73
2022/07/15 04:56:13;;;;;;;20.58;9.32;;;;;;;25.08;49.10;99903.81;5006013;28;20085;-66
2022/07/15 04:58:40;;;;;;;14.43;8.35;;;;;;;24.99;49.09;99907.00;5005183;28;20517;-68
2022/07/15 05:01:07;;;;;;;18.55;9.80;;;;;;;25.04;48.87;99913.16;5009128;28;20042;-68
2022/07/15 05:03:34;;;;;;;15.65;8.10;;;;;;;25.23;49.01;99942.75;5007339;28;20053;-69
2022/07/15 05:06:02;;;;;;;15.05;8.55;;;;;;;25.20;48.87;99937.84;5005374;28;20101;-67
2022/07/15 05:08:29;;;;;;;18.88;10.05;;;;;;;25.16;48.76;99920.66;5007673;28;20509;-68
2022/07/15 05:10:56;;;;;;;17.55;9.65;;;;;;;25.18;48.67;99917.41;5007375;28;20088;-68
2022/07/15 05:13:23;;;;;;;24.63;9.88;;;;;;;25.15;48.69;99918.19;5005757;28;20058;-68
2022/07/15 05:15:50;;;;;;;19.02;10.35;;;;;;;25.13;48.59;99914.91;5004375;28;20524;-68
2022/07/15 05:18:16;;;;;;;22.90;10.02;;;;;;;25.16;48.21;99919.81;5007085;28;20469;-68
2022/07/15 05:20:44;;;;;;;19.50;10.40;;;;;;;25.13;48.30;99918.59;5005355;28;20050;-68
2022/07/15 05:23:10;;;;;;;24.73;9.98;;;;;;;25.08;48.49;99909.53;5011265;28;20179;-68
2022/07/15 05:25:37;;;;;;;18.58;10.50;;;;;;;25.11;48.22;99912.44;5007791;28;20084;-69
2022/07/15 05:28:04;;;;;;;15.48;9.27;;;;;;;25.26;48.94;99948.50;5009897;28;20481;-70
2022/07/15 05:30:31;;;;;;;18.48;10.13;;;;;;;25.22;48.84;99938.25;5007122;28;20138;-68
2022/07/15 05:32:58;;;;;;;22.02;10.63;;;;;;;25.18;48.79;99935.38;5007726;28;20050;-68
2022/07/15 05:35:25;;;;;;;16.27;9.30;;;;;;;25.11;48.85;99926.72;5003874;28;20092;-68
2022/07/15 05:37:52;;;;;;;21.05;11.07;;;;;;;25.06;49.35;99921.38;5008875;28;20086;-69
2022/07/15 05:40:19;;;;;;;22.17;10.55;;;;;;;24.99;49.29;99902.13;5006917;28;20148;-69
2022/07/15 05:42:46;;;;;;;25.00;9.82;;;;;;;25.02;49.16;99914.78;5002841;28;20468;-69
2022/07/15 05:45:13;;;;;;;22.33;12.02;;;;;;;25.06;49.04;99927.06;5008891;28;20125;-69
2022/07/15 05:47:46;;;;;;;19.90;10.20;;;;;;;25.21;49.33;99934.56;5001989;28;20133;-68
2022/07/15 05:50:13;;;;;;;20.23;11.95;;;;;;;25.18;49.18;99943.13;5007243;28;20193;-68
2022/07/15 05:52:40;;;;;;;21.73;10.40;;;;;;;25.06;49.44;99935.66;5005943;28;20081;-68
2022/07/15 05:55:07;;;;;;;20.00;11.13;;;;;;;25.04;49.86;99947.44;5004426;28;20425;-68
2022/07/15 05:57:34;;;;;;;26.52;11.25;;;;;;;24.79;50.17;99932.94;5001036;28;20141;-69
2022/07/15 06:00:11;;;;;;;20.80;11.32;;;;;;;25.08;49.50;99949.53;5000600;28;20046;-68
2022/07/15 06:02:37;;;;;;;19.10;10.20;;;;;;;25.18;49.46;99945.97;5002344;28;20077;-68
2022/07/15 06:05:05;;;;;;;21.20;10.85;;;;;;;25.34;49.54;99946.53;5006248;28;20180;-69
2022/07/15 06:07:32;;;;;;;20.48;11.70;;;;;;;25.44;49.29;99960.09;5004724;28;20089;-68
2022/07/15 06:09:58;;;;;;;26.55;11.25;;;;;;;25.52;48.72;99953.19;5004659;28;20081;-68
2022/07/15 06:12:25;;;;;;;22.75;11.20;;;;;;;25.71;49.17;99969.28;5003188;28;20066;-67
2022/07/15 06:14:52;;;;;;;15.75;9.10;;;;;;;25.67;49.02;99930.41;5007248;28;20141;-67
2022/07/15 06:17:19;;;;;;;21.50;10.45;;;;;;;25.83;49.25;99953.84;5000963;28;20131;-67
2022/07/15 06:19:46;;;;;;;20.75;11.18;;;;;;;25.88;49.56;99949.78;5003634;28;20125;-68
2022/07/15 06:22:13;;;;;;;23.60;11.40;;;;;;;25.90;49.50;99947.34;5001593;28;20165;-68
2022/07/15 06:24:40;;;;;;;20.85;11.52;;;;;;;25.96;49.45;99940.84;5002892;28;20145;-67
2022/07/15 06:27:07;;;;;;;20.95;11.90;;;;;;;26.32;49.53;99968.81;5002502;28;20133;-69
2022/07/15 06:29:34;;;;;;;18.77;10.57;;;;;;;26.51;49.04;99959.94;5003992;28;20884;-68
2022/07/15 06:32:00;;;;;;;22.38;10.10;;;;;;;26.55;48.98;99955.03;5003366;28;20077;-68
2022/07/15 06:34:27;;;;;;;19.90;10.88;;;;;;;26.76;48.97;99970.66;5005709;28;20492;-67
2022/07/15 06:36:54;;;;;;;24.38;11.52;;;;;;;26.92;48.64;99968.25;4994324;28;20076;-68
2022/07/15 06:39:21;;;;;;;23.40;12.20;;;;;;;27.05;48.39;99960.91;4997695;28;20069;-68
2022/07/15 06:41:48;;;;;;;28.90;11.95;;;;;;;27.17;48.02;99963.41;5003988;28;20060;-67
2022/07/15 06:44:15;;;;;;;34.85;11.25;;;;;;;27.39;47.85;99972.03;4997421;28;20089;-67
2022/07/15 06:46:43;;;;;;;15.85;10.88;;;;;;;27.48;47.94;99972.41;4999295;28;20791;-66
2022/07/15 06:49:10;;;;;;;19.95;11.13;;;;;;;27.69;47.55;99982.25;4998700;28;20734;-67
2022/07/15 06:51:36;;;;;;;19.38;9.80;;;;;;;27.94;47.25;99982.25;4999603;28;20060;-66
2022/07/15 06:54:03;;;;;;;22.40;11.18;;;;;;;28.23;46.85;99991.59;5007696;28;20064;-69
2022/07/15 06:56:30;;;;;;;18.02;11.45;;;;;;;28.32;46.40;99997.72;5002107;28;20093;-69
2022/07/15 06:58:57;;;;;;;18.90;11.40;;;;;;;28.31;46.37;99996.09;5004261;28;20144;-68
2022/07/15 07:01:24;;;;;;;17.40;11.43;;;;;;;28.46;46.17;100005.50;4998455;28;20148;-68
2022/07/15 07:03:52;;;;;;;19.90;11.00;;;;;;;28.63;45.98;99990.25;5010674;28;20062;-69
2022/07/15 07:06:26;;;;;;;18.48;11.20;;;;;;;29.06;45.19;100013.06;5007230;28;20050;-69
2022/07/15 07:08:53;;;;;;;17.48;10.43;;;;;;;29.31;44.63;100018.63;5009806;28;20413;-68
2022/07/15 07:11:20;;;;;;;17.20;9.73;;;;;;;29.56;44.62;100011.88;5005602;28;20058;-68
2022/07/15 07:13:48;;;;;;;17.67;9.98;;;;;;;29.77;44.35;100014.59;5005607;28;20053;-68
2022/07/15 07:16:16;;;;;;;16.88;9.45;;;;;;;29.83;43.51;100004.25;5006582;28;20081;-69
2022/07/15 07:18:45;;;;;;;16.40;9.85;;;;;;;29.97;43.36;100027.13;5009517;28;20451;-68
2022/07/15 07:21:13;;;;;;;17.77;8.07;;;;;;;30.08;43.65;100026.22;5003459;28;20056;-68
2022/07/15 07:23:41;;;;;;;18.23;9.63;;;;;;;30.21;42.90;100010.06;5001408;28;20497;-69
2022/07/15 07:26:09;;;;;;;19.15;9.93;;;;;;;30.29;42.76;100014.50;5010671;28;20129;-68
2022/07/15 07:28:39;;;;;;;16.55;8.93;;;;;;;30.58;42.87;100034.34;4998856;28;20386;-69
2022/07/15 07:31:11;;;;;;;16.55;8.00;;;;;;;30.67;42.21;100028.88;5008349;28;20145;-70
2022/07/15 07:33:39;;;;;;;20.52;8.63;;;;;;;30.61;42.37;100030.59;5001108;28;20050;-69
2022/07/15 07:36:07;;;;;;;17.17;9.23;;;;;;;30.64;42.04;100023.97;5000514;28;20081;-70
2022/07/15 07:38:35;;;;;;;12.40;7.03;;;;;;;30.39;42.07;100038.66;5001009;28;20046;-69
2022/07/15 07:41:03;;;;;;;16.05;7.22;;;;;;;29.78;42.99;100038.41;5002469;28;20592;-69
2022/07/15 07:43:32;;;;;;;15.20;6.97;;;;;;;29.47;43.21;100039.06;5001398;28;20077;-72
2022/07/15 07:45:59;;;;;;;15.60;6.28;;;;;;;29.59;43.03;100046.38;5000375;28;20049;-72
2022/07/15 07:48:26;;;;;;;17.38;6.30;;;;;;;29.74;43.02;100047.09;5002717;28;20052;-72
2022/07/15 07:50:53;;;;;;;15.52;6.90;;;;;;;29.95;42.28;100055.56;5002390;28;20080;-72
2022/07/15 07:53:20;;;;;;;14.13;6.90;;;;;;;29.96;42.32;100062.94;5004637;28;20530;-71
2022/07/15 07:55:48;;;;;;;15.07;6.80;;;;;;;30.06;42.48;100040.25;5006052;28;20469;-72
2022/07/15 07:58:16;;;;;;;12.13;7.00;;;;;;;30.41;41.51;100053.47;5013046;28;20064;-71
2022/07/15 08:00:44;;;;;;;18.77;8.10;;;;;;;30.85;40.93;100043.91;5008524;28;20141;-72
2022/07/15 08:03:12;;;;;;;22.70;8.60;;;;;;;30.97;40.57;100033.03;5008234;28;20531;-72
2022/07/15 08:05:39;;;;;;;16.85;6.65;;;;;;;30.89;41.01;100050.44;5012137;28;20409;-72
2022/07/15 08:08:16;;;;;;;20.38;7.30;;;;;;;30.98;40.93;100061.44;5008935;28;20088;-72
2022/07/15 08:10:46;;;;;;;10.02;6.03;;;;;;;30.94;40.46;100037.63;5003692;28;20081;-72
2022/07/15 08:13:18;;;;;;;25.02;7.28;;;;;;;31.23;40.28;100061.09;5006296;28;20068;-72
2022/07/15 08:15:46;;;;;;;20.35;7.95;;;;;;;31.25;40.24;100060.66;5012042;28;20141;-72
2022/07/15 08:18:13;;;;;;;23.85;8.60;;;;;;;31.30;40.00;100057.28;5003311;28;20168;-71
2022/07/15 08:20:41;;;;;;;22.92;9.65;;;;;;;31.21;40.02;100065.66;5006121;28;20488;-71
2022/07/15 08:23:09;;;;;;;16.13;9.52;;;;;;;31.04;39.78;100068.34;5005115;28;20472;-72
2022/07/15 08:25:37;;;;;;;26.63;10.23;;;;;;;31.24;39.95;100068.50;5004620;28;20047;-71
2022/07/15 08:28:05;;;;;;;28.42;9.90;;;;;;;31.58;40.06;100067.59;4999629;28;20591;-71
2022/07/15 08:30:33;;;;;;;22.52;9.02;;;;;;;31.97;38.96;100066.19;5000655;28;20074;-71
2022/07/15 08:33:01;;;;;;;29.35;9.60;;;;;;;32.10;38.59;100041.16;5007792;28;20512;-72
2022/07/15 08:35:28;;;;;;;20.50;10.60;;;;;;;32.58;38.13;100068.75;5002388;28;20080;-72
2022/07/15 08:37:55;;;;;;;26.65;11.23;;;;;;;32.52;37.52;100077.16;5005004;28;20140;-72
2022/07/15 08:40:24;;;;;;;21.77;11.35;;;;;;;32.33;38.11;100066.34;5008107;28;21205;-72
2022/07/15 08:42:51;;;;;;;27.65;10.50;;;;;;;32.24;38.10;100066.94;5006396;28;20077;-72
2022/07/15 08:45:18;;;;;;;18.42;9.82;;;;;;;32.42;38.17;100088.91;4999382;28;20081;-71
2022/07/15 08:47:46;;;;;;;20.08;11.60;;;;;;;32.44;38.30;100074.81;4999418;28;20116;-72
2022/07/15 08:50:20;;;;;;;21.10;9.57;;;;;;;32.49;38.05;100048.31;5003849;28;20046;-70
2022/07/15 08:52:48;;;;;;;17.83;9.35;;;;;;;32.61;37.72;100062.09;5005461;28;20460;-72
2022/07/15 08:55:18;;;;;;;24.02;10.13;;;;;;;32.61;37.82;100059.19;5006351;28;20299;-71
2022/07/15 08:57:50;;;;;;;19.88;9.27;;;;;;;32.81;37.77;100047.63;5004259;28;20062;-71
2022/07/15 09:00:18;;;;;;;18.80;9.68;;;;;;;33.03;36.89;100066.22;4997770;28;20603;-71
2022/07/15 09:02:46;;;;;;;16.95;9.30;;;;;;;33.16;36.88;100077.06;5000741;28;20524;-72
2022/07/15 09:05:26;;;;;;;22.38;11.20;;;;;;;33.06;36.91;100052.94;5002143;28;20069;-72
2022/07/15 09:08:02;;;;;;;24.60;11.55;;;;;;;33.45;36.72;100086.75;5001476;28;20058;-71
2022/07/15 09:10:58;;;;;;;21.08;11.82;;;;;;;33.52;36.42;100079.19;5000784;28;20161;-71
2022/07/15 09:13:30;;;;;;;19.98;10.05;;;;;;;33.65;36.41;100083.00;5003718;28;20129;-71
2022/07/15 09:16:08;;;;;;;14.30;9.43;;;;;;;33.86;36.18;100088.28;5002849;28;20053;-72
2022/07/15 09:18:45;;;;;;;18.42;9.20;;;;;;;33.95;36.31;100081.84;5000275;28;20146;-71
2022/07/15 09:21:23;;;;;;;16.15;8.65;;;;;;;34.06;36.26;100081.59;4998132;28;20053;-71
2022/07/15 09:23:51;;;;;;;26.27;9.47;;;;;;;34.22;35.88;100089.44;5006749;28;20608;-72
2022/07/15 09:26:32;;;;;;;16.23;9.23;;;;;;;34.33;35.62;100085.00;5000904;28;20385;-72
2022/07/15 09:29:00;;;;;;;19.17;9.52;;;;;;;34.36;35.52;100089.06;5003621;28;20145;-73
2022/07/15 09:34:21;;;;;;;24.70;9.38;;;;;;;34.34;35.18;100083.72;5003234;28;20140;-72
2022/07/15 09:36:57;;;;;;;20.67;10.13;;;;;;;34.10;35.55;100021.47;5001289;28;20054;-71
2022/07/15 09:39:25;;;;;;;21.88;8.93;;;;;;;34.29;35.29;100080.56;5008117;28;20145;-72
2022/07/15 09:41:52;;;;;;;21.48;11.77;;;;;;;34.28;35.21;100058.66;5004578;28;20145;-71
2022/07/15 09:44:29;;;;;;;19.92;10.18;;;;;;;34.46;34.89;100082.16;5002171;28;20050;-71
2022/07/15 09:47:01;;;;;;;22.95;11.45;;;;;;;34.62;34.56;100075.53;4998683;28;20048;-72
2022/07/15 09:49:27;;;;;;;18.52;10.35;;;;;;;34.65;34.78;100087.03;4999332;28;20066;-71
2022/07/15 09:52:00;;;;;;;20.13;10.23;;;;;;;34.79;34.45;100087.91;5002838;28;20064;-71
2022/07/15 09:54:30;;;;;;;18.13;9.50;;;;;;;34.59;34.33;100071.47;5005717;28;20076;-72
2022/07/15 09:57:00;;;;;;;17.25;10.40;;;;;;;34.57;34.96;100079.03;5005009;28;20057;-72
2022/07/15 09:59:28;;;;;;;16.92;10.75;;;;;;;34.52;34.24;100089.06;5001719;28;20077;-71
2022/07/15 10:01:56;;;;;;;18.50;11.20;;;;;;;34.74;33.97;100086.38;5004916;28;20050;-72
2022/07/15 10:04:26;;;;;;;14.30;9.02;;;;;;;34.95;33.56;100087.84;5007155;28;20084;-72
2022/07/15 10:06:55;;;;;;;19.60;10.07;;;;;;;35.03;33.46;100077.66;5005890;28;20104;-72
2022/07/15 10:09:44;;;;;;;16.92;7.53;;;;;;;34.95;33.65;100093.66;5002466;28;20053;-72
2022/07/15 10:12:26;;;;;;;14.50;8.23;;;;;;;34.71;33.84;100084.41;5007590;28;20054;-72
2022/07/15 10:15:35;;;;;;;14.32;7.32;;;;;;;34.75;33.82;100072.69;4995936;28;20482;-71
2022/07/15 10:18:39;;;;;;;16.95;7.68;;;;;;;34.92;33.36;100093.75;4999223;28;20050;-71
2022/07/15 10:21:26;;;;;;;12.68;6.55;;;;;;;34.97;33.15;100093.97;4996389;28;20053;-72
2022/07/15 10:24:20;;;;;;;9.75;6.40;;;;;;;34.96;33.25;100089.47;5002941;28;20058;-72
2022/07/15 10:26:56;;;;;;;10.73;6.70;;;;;;;35.13;33.03;100105.56;5003155;28;20156;-72
2022/07/15 10:29:23;;;;;;;12.32;6.70;;;;;;;35.14;32.63;100097.66;5005230;28;20136;-73
2022/07/15 10:31:59;;;;;;;18.40;7.57;;;;;;;34.96;32.47;100086.56;5004413;28;20689;-72
2022/07/15 10:34:33;;;;;;;14.07;6.75;;;;;;;35.08;32.11;100090.81;5005203;28;20064;-73
2022/07/15 10:37:06;;;;;;;9.50;5.68;;;;;;;35.19;32.68;100105.00;5001789;28;20079;-73
2022/07/15 10:39:46;;;;;;;10.68;6.18;;;;;;;35.31;32.50;100115.81;5006377;28;20065;-71
2022/07/15 10:42:13;;;;;;;15.07;6.57;;;;;;;35.35;32.40;100120.25;5001073;28;20057;-72
2022/07/15 10:44:58;;;;;;;8.85;6.50;;;;;;;35.78;31.97;100109.38;4997852;28;20560;-72
2022/07/15 10:47:25;;;;;;;12.70;6.57;;;;;;;35.99;31.28;100116.56;5033047;28;20050;-72
2022/07/15 10:49:53;;;;;;;11.48;6.50;;;;;;;35.90;31.09;100107.72;5004998;28;20073;-72
2022/07/15 10:52:25;;;;;;;14.05;6.85;;;;;;;35.96;31.36;100108.75;5008939;28;20474;-73
2022/07/15 10:54:55;;;;;;;10.50;5.15;;;;;;;36.27;30.84;100101.06;5002170;28;20136;-72
2022/07/15 10:57:42;;;;;;;15.77;6.15;;;;;;;36.28;30.44;100107.72;5001511;28;20058;-72
2022/07/15 11:00:21;;;;;;;15.07;6.45;;;;;;;36.28;30.35;100107.72;5002706;28;20537;-73
2022/07/15 11:03:09;;;;;;;7.95;4.93;;;;;;;36.06;31.14;100114.25;5002605;28;20464;-69
2022/07/15 11:05:48;;;;;;;13.18;4.30;;;;;;;36.02;31.56;100118.56;5005320;28;20045;-69
2022/07/15 11:08:31;;;;;;;7.65;3.92;;;;;;;36.19;31.58;100125.06;5001168;28;20057;-70
2022/07/15 11:11:18;;;;;;;8.00;4.03;;;;;;;36.26;31.38;100116.06;5029927;28;20085;-70
2022/07/15 11:13:48;;;;;;;5.13;3.08;;;;;;;36.34;31.47;100116.63;4998601;28;20145;-70
2022/07/15 11:16:18;;;;;;;5.53;2.63;;;;;;;36.32;31.30;100102.56;5004897;28;20136;-70
2022/07/15 11:18:53;;;;;;;7.40;3.13;;;;;;;36.11;31.57;100109.16;5001660;28;20448;-70
2022/07/15 11:21:21;;;;;;;6.80;3.10;;;;;;;36.02;31.90;100139.72;5007513;28;20054;-70
2022/07/15 11:23:49;;;;;;;3.97;2.93;;;;;;;35.99;32.33;100131.09;5009555;28;20485;-70
2022/07/15 11:26:17;;;;;;;4.80;3.08;;;;;;;36.10;31.93;100131.56;5000637;28;20513;-69
2022/07/15 11:28:56;;;;;;;11.07;3.85;;;;;;;36.01;31.71;100135.19;5009376;28;20077;-70
2022/07/15 11:31:23;;;;;;;8.18;3.72;;;;;;;35.98;32.48;100144.00;5008474;28;20477;-70
2022/07/15 11:33:54;;;;;;;10.00;4.25;;;;;;;35.79;32.62;100140.84;5003384;28;20440;-70
2022/07/15 11:36:22;;;;;;;8.35;4.07;;;;;;;35.84;32.55;100136.56;5011661;28;20077;-69
2022/07/15 11:38:50;;;;;;;6.93;3.70;;;;;;;35.58;32.78;100151.06;5008446;28;20081;-69
2022/07/15 11:46:52;;;;;;;10.98;5.15;;;;;;;36.15;32.70;100127.28;4998286;28;20078;-69